Tampa, Florida
Traffic Map
Current Weather Conditions
Tampa, Florida
Broken Clouds
Broken Clouds
80°
Feels Like: 84°
Wind Chill: 80° Ceiling: 28000
Heat Index: 84° Visibility: 10mi
Dew Point: 72° Wind: 0mph
Humidity: 76% Direction: ° ()
Pressure: 30in Gusts: 0mph
Raw Report DataKTPA 030653Z 00000KT 10SM SCT065 BKN280 27/22 A3000 RMK AO2 SLP159 T02670222
Traffic Incident Summary
Active as of:
Severity:
Category:
InformationThere was an issue retrieving the traffic information for this location. Please try a different location or try again shortly.
Advertisements
Track Severe Weather on mobile